createdAt,value
2019-02-25T00:01:24.111Z,42.56
2019-02-25T00:03:54.457Z,43.41
2019-02-25T00:06:24.755Z,43.56
2019-02-25T00:08:55.557Z,43.32
2019-02-25T00:11:25.841Z,43.44
2019-02-25T00:13:56.155Z,43.21
2019-02-25T00:16:27.421Z,43.16
2019-02-25T00:18:57.707Z,43.10
2019-02-25T00:21:29.198Z,42.28
2019-02-25T00:23:59.484Z,42.36
2019-02-25T00:26:29.830Z,42.78
2019-02-25T00:29:00.125Z,43.50
2019-02-25T00:31:30.453Z,43.25
2019-02-25T00:34:00.757Z,43.14
2019-02-25T00:36:31.102Z,44.11
2019-02-25T00:39:01.368Z,43.31
2019-02-25T00:41:33.852Z,43.32
2019-02-25T00:44:04.113Z,42.71
2019-02-25T00:46:34.373Z,42.18
2019-02-25T00:49:05.705Z,42.58
2019-02-25T00:51:35.992Z,42.44
2019-02-25T00:54:06.270Z,42.30
2019-02-25T00:56:36.537Z,41.89
2019-02-25T00:59:06.978Z,42.31
2019-02-25T01:01:37.267Z,42.50
2019-02-25T01:04:07.551Z,41.57
2019-02-25T01:06:37.833Z,41.94
2019-02-25T01:09:08.109Z,42.38
2019-02-25T01:11:38.569Z,42.73
2019-02-25T01:14:08.883Z,42.39
2019-02-25T01:16:39.159Z,41.73
2019-02-25T01:19:09.428Z,42.01
2019-02-25T01:21:39.717Z,42.85
2019-02-25T01:24:09.977Z,42.07
2019-02-25T01:26:40.301Z,42.78
2019-02-25T01:29:10.573Z,42.90
2019-02-25T01:31:40.849Z,41.91
2019-02-25T01:34:11.196Z,43.24
2019-02-25T01:36:41.479Z,43.14
2019-02-25T01:39:11.819Z,42.60
2019-02-25T01:41:42.096Z,42.50
2019-02-25T01:44:12.392Z,42.73
2019-02-25T01:46:42.664Z,42.97
2019-02-25T01:49:12.920Z,43.46
2019-02-25T01:51:43.262Z,42.76
2019-02-25T01:54:13.584Z,42.51
2019-02-25T01:56:43.865Z,42.71
2019-02-25T01:59:14.160Z,42.28
2019-02-25T02:01:44.466Z,42.51
2019-02-25T02:04:14.757Z,42.76
2019-02-25T02:06:45.103Z,42.36
2019-02-25T02:09:15.405Z,42.11
2019-02-25T02:11:45.730Z,42.31
2019-02-25T02:14:17.583Z,42.60
2019-02-25T02:16:47.859Z,42.58
2019-02-25T02:19:18.130Z,42.90
2019-02-25T02:21:48.414Z,42.92
2019-02-25T02:24:18.677Z,42.55
2019-02-25T02:26:48.985Z,42.44
2019-02-25T02:29:19.250Z,41.97
2019-02-25T02:31:49.529Z,42.84
2019-02-25T02:34:20.902Z,42.67
2019-02-25T02:36:51.174Z,42.12
2019-02-25T02:39:21.457Z,42.01
2019-02-25T02:42:16.649Z,43.98
2019-02-25T02:44:51.969Z,43.89
2019-02-25T02:47:43.132Z,44.76
2019-02-25T02:50:21.967Z,45.11
2019-02-25T02:52:52.239Z,44.43
2019-02-25T02:55:22.503Z,44.01
2019-02-25T02:57:52.824Z,45.33
2019-02-25T03:00:23.172Z,45.42
2019-02-25T03:02:53.471Z,45.00
2019-02-25T03:05:23.791Z,45.36
2019-02-25T03:07:54.055Z,45.67
2019-02-25T03:10:24.340Z,44.70
2019-02-25T03:12:54.619Z,45.52
2019-02-25T03:15:24.912Z,46.10
2019-02-25T03:17:55.183Z,45.81
2019-02-25T03:20:25.447Z,45.46
2019-02-25T03:22:55.728Z,47.24
2019-02-25T03:25:26.013Z,46.10
2019-02-25T03:27:56.304Z,45.67
2019-02-25T03:30:26.560Z,45.00
2019-02-25T03:32:56.858Z,43.60
2019-02-25T03:35:27.146Z,45.69
2019-02-25T03:37:57.398Z,45.20
2019-02-25T03:40:27.686Z,45.94
2019-02-25T03:42:58.018Z,45.68
2019-02-25T03:45:28.265Z,44.96
2019-02-25T03:47:58.537Z,46.29
2019-02-25T03:50:28.822Z,45.95
2019-02-25T03:52:59.113Z,45.00
2019-02-25T03:55:29.370Z,45.74
2019-02-25T03:57:59.629Z,45.55
2019-02-25T04:00:29.961Z,46.73
2019-02-25T04:03:00.276Z,46.49
2019-02-25T04:05:30.600Z,46.06
2019-02-25T04:08:00.903Z,45.65
2019-02-25T04:10:31.286Z,44.87
2019-02-25T04:13:01.626Z,44.42
2019-02-25T04:15:39.731Z,43.58
2019-02-25T04:18:10.008Z,44.46
2019-02-25T04:20:40.309Z,44.31
2019-02-25T04:23:10.600Z,44.52
2019-02-25T04:25:40.912Z,44.66
2019-02-25T04:28:11.173Z,44.36
2019-02-25T04:30:41.451Z,44.48
2019-02-25T04:33:11.721Z,44.68
2019-02-25T04:35:42.005Z,44.51
2019-02-25T04:38:12.318Z,45.05
2019-02-25T04:40:42.601Z,44.35
2019-02-25T04:43:12.893Z,44.01
2019-02-25T04:45:43.167Z,44.93
2019-02-25T04:48:13.460Z,44.70
2019-02-25T04:50:43.734Z,44.98
2019-02-25T04:53:14.006Z,44.79
2019-02-25T04:55:44.297Z,44.85
2019-02-25T04:58:14.577Z,44.62
2019-02-25T05:00:44.851Z,44.75
2019-02-25T05:03:15.150Z,44.55
2019-02-25T05:05:45.550Z,44.62
2019-02-25T05:08:15.900Z,45.52
2019-02-25T05:10:46.211Z,46.01
2019-02-25T05:13:16.999Z,45.89
2019-02-25T05:15:47.785Z,46.00
2019-02-25T05:18:18.283Z,45.60
2019-02-25T05:20:48.943Z,45.57
2019-02-25T05:23:19.514Z,45.17
2019-02-25T05:25:49.888Z,45.04
2019-02-25T05:28:20.247Z,45.13
2019-02-25T05:30:51.032Z,44.95
2019-02-25T05:33:21.374Z,44.73
2019-02-25T05:35:51.751Z,44.91
2019-02-25T05:38:22.173Z,44.99
2019-02-25T05:40:52.562Z,45.25
2019-02-25T05:43:23.001Z,44.99
2019-02-25T05:45:53.299Z,45.11
2019-02-25T05:48:23.652Z,45.23
2019-02-25T05:50:54.009Z,45.60
2019-02-25T05:53:24.354Z,45.10
2019-02-25T05:55:55.444Z,44.85
2019-02-25T05:58:26.026Z,44.67
2019-02-25T06:00:56.433Z,46.42
2019-02-25T06:03:27.081Z,46.90
2019-02-25T06:05:57.985Z,47.69
2019-02-25T06:08:28.269Z,47.29
2019-02-25T06:10:58.890Z,48.21
2019-02-25T06:13:29.243Z,48.06
2019-02-25T06:15:59.573Z,49.02
2019-02-25T06:18:29.854Z,47.56
2019-02-25T06:21:00.176Z,46.61
2019-02-25T06:23:30.465Z,47.27
2019-02-25T06:26:00.738Z,47.97
2019-02-25T06:28:31.062Z,48.10
2019-02-25T06:31:01.693Z,48.53
2019-02-25T06:33:32.046Z,47.81
2019-02-25T06:36:02.332Z,48.33
2019-02-25T06:38:32.649Z,48.11
2019-02-25T06:41:02.969Z,47.78
2019-02-25T06:43:33.265Z,47.23
2019-02-25T06:46:03.595Z,46.79
2019-02-25T06:48:33.998Z,46.98
2019-02-25T06:51:04.351Z,45.95
2019-02-25T06:53:34.641Z,45.25
2019-02-25T06:56:07.930Z,44.97
2019-02-25T06:58:38.211Z,44.95
2019-02-25T07:01:08.484Z,43.34
2019-02-25T07:03:38.773Z,43.05
2019-02-25T07:06:19.596Z,42.94
2019-02-25T07:09:03.769Z,42.83
2019-02-25T07:11:37.573Z,42.06
2019-02-25T07:14:09.515Z,41.56
2019-02-25T07:16:41.475Z,40.33
2019-02-25T07:19:25.265Z,40.16
2019-02-25T07:22:06.144Z,40.12
2019-02-25T07:24:38.079Z,40.99
2019-02-25T07:27:25.090Z,42.51
2019-02-25T07:29:57.029Z,43.36
2019-02-25T07:32:30.218Z,44.06
2019-02-25T07:35:09.269Z,44.34
2019-02-25T07:37:57.513Z,44.79
2019-02-25T07:40:45.697Z,45.21
2019-02-25T07:43:26.873Z,44.74
2019-02-25T07:46:13.834Z,45.19
2019-02-25T07:48:45.758Z,46.00
2019-02-25T07:51:20.424Z,46.38
2019-02-25T07:53:55.444Z,46.41
2019-02-25T07:56:27.390Z,46.16
2019-02-25T07:59:02.036Z,46.22
2019-02-25T08:01:33.947Z,46.44
2019-02-25T08:04:05.869Z,46.28
2019-02-25T08:06:37.803Z,46.75
2019-02-25T08:09:16.271Z,47.01
2019-02-25T08:11:51.037Z,47.27
2019-02-25T08:14:29.013Z,47.53
2019-02-25T08:17:00.937Z,47.53
2019-02-25T08:19:32.862Z,46.09
2019-02-25T08:22:04.829Z,46.66
2019-02-25T08:24:45.722Z,46.54
2019-02-25T08:27:20.383Z,48.19
2019-02-25T08:30:04.816Z,47.04
2019-02-25T08:32:42.748Z,46.84
2019-02-25T08:35:20.816Z,48.74
2019-02-25T08:37:53.646Z,47.58
2019-02-25T08:40:49.710Z,46.93
2019-02-25T08:43:21.694Z,46.97
2019-02-25T08:46:05.868Z,46.87
2019-02-25T08:48:43.502Z,46.15
2019-02-25T08:51:13.787Z,47.08
2019-02-25T08:53:44.077Z,46.58
2019-02-25T08:56:14.407Z,45.93
2019-02-25T08:58:44.706Z,44.76
2019-02-25T09:01:15.586Z,44.99
2019-02-25T09:04:03.936Z,47.20
2019-02-25T09:06:34.257Z,47.23
2019-02-25T09:09:05.684Z,47.05
2019-02-25T09:11:36.185Z,46.20
2019-02-25T09:14:06.486Z,46.45
2019-02-25T09:16:36.781Z,46.47
2019-02-25T09:19:07.080Z,47.02
2019-02-25T09:21:37.364Z,47.00
2019-02-25T09:24:07.666Z,46.39
2019-02-25T09:26:37.952Z,46.70
2019-02-25T09:29:08.428Z,45.73
2019-02-25T09:31:38.752Z,46.78
2019-02-25T09:34:09.162Z,46.63
2019-02-25T09:36:39.502Z,46.35
2019-02-25T09:39:12.491Z,46.30
2019-02-25T09:41:42.789Z,45.33
2019-02-25T09:44:13.059Z,45.34
2019-02-25T09:46:44.461Z,45.83
2019-02-25T09:49:14.761Z,47.07
2019-02-25T09:51:45.043Z,46.25
2019-02-25T09:54:15.320Z,46.20
2019-02-25T09:56:45.629Z,46.56
2019-02-25T09:59:15.919Z,46.27
2019-02-25T10:01:46.216Z,45.61
2019-02-25T10:04:16.484Z,45.99
2019-02-25T10:06:46.756Z,46.78
2019-02-25T10:09:17.043Z,46.82
2019-02-25T10:11:48.770Z,47.76
2019-02-25T10:14:19.107Z,48.29
2019-02-25T10:16:49.458Z,47.70
2019-02-25T10:19:19.774Z,46.31
2019-02-25T10:21:50.256Z,45.66
2019-02-25T10:24:20.530Z,45.73
2019-02-25T10:26:50.860Z,45.12
2019-02-25T10:29:21.149Z,45.68
2019-02-25T10:31:51.444Z,45.24
2019-02-25T10:34:21.745Z,45.30
2019-02-25T10:36:52.423Z,45.59
2019-02-25T10:39:22.786Z,45.04
2019-02-25T10:41:54.029Z,44.81
2019-02-25T10:44:26.076Z,44.80
2019-02-25T10:46:56.391Z,45.38
2019-02-25T10:49:28.728Z,44.98
2019-02-25T10:51:58.682Z,45.22
2019-02-25T10:54:28.959Z,45.67
2019-02-25T10:56:59.319Z,46.48
2019-02-25T10:59:31.832Z,45.86
2019-02-25T11:02:01.669Z,46.68
2019-02-25T11:04:32.088Z,48.27
2019-02-25T11:07:03.520Z,46.97
2019-02-25T11:09:36.042Z,46.38
2019-02-25T11:12:07.116Z,47.45
2019-02-25T11:14:38.958Z,45.19
2019-02-25T11:17:09.431Z,46.37
2019-02-25T11:19:39.731Z,44.89
2019-02-25T11:22:11.663Z,44.74
2019-02-25T11:24:42.038Z,45.75
2019-02-25T11:27:12.336Z,45.00
2019-02-25T11:29:44.131Z,46.33
2019-02-25T11:32:14.596Z,45.93
2019-02-25T11:34:44.905Z,46.26
2019-02-25T11:37:16.811Z,46.92
2019-02-25T11:39:47.169Z,47.35
2019-02-25T11:42:20.387Z,46.60
2019-02-25T11:44:49.447Z,46.22
2019-02-25T11:47:19.741Z,45.81
2019-02-25T11:49:51.062Z,46.10
2019-02-25T11:52:21.303Z,45.60
2019-02-25T11:54:51.608Z,45.42
2019-02-25T11:57:21.901Z,44.94
2019-02-25T11:59:52.181Z,45.14
2019-02-25T12:02:25.528Z,43.71
2019-02-25T12:04:54.576Z,41.88
2019-02-25T12:07:24.898Z,42.59
2019-02-25T12:09:55.287Z,42.55
2019-02-25T12:12:25.582Z,41.07
2019-02-25T12:14:55.856Z,41.57
2019-02-25T12:17:26.140Z,40.23
2019-02-25T12:19:56.427Z,40.51
2019-02-25T12:22:26.728Z,40.23
2019-02-25T12:24:57.016Z,37.58
2019-02-25T12:27:27.376Z,36.30
2019-02-25T12:29:57.657Z,36.50
2019-02-25T12:32:27.934Z,35.73
2019-02-25T12:34:58.221Z,35.12
2019-02-25T12:37:28.543Z,36.05
2019-02-25T12:39:59.942Z,36.59
2019-02-25T12:42:30.222Z,36.55
2019-02-25T12:45:00.518Z,37.44
2019-02-25T12:47:30.787Z,37.65
2019-02-25T12:50:01.061Z,36.61
2019-02-25T12:52:31.424Z,36.89
2019-02-25T12:55:01.696Z,37.26
2019-02-25T12:57:33.184Z,36.77
2019-02-25T13:00:04.242Z,37.32
2019-02-25T13:02:35.030Z,37.57
2019-02-25T13:05:08.468Z,36.01
2019-02-25T13:07:38.813Z,34.55
2019-02-25T13:10:11.240Z,35.61
2019-02-25T13:12:41.666Z,36.42
2019-02-25T13:15:14.338Z,36.79
2019-02-25T13:17:44.764Z,36.69
2019-02-25T13:20:15.668Z,36.42
2019-02-25T13:22:46.014Z,36.73
2019-02-25T13:25:27.534Z,36.00
2019-02-25T13:27:58.743Z,35.87
2019-02-25T13:30:30.683Z,37.49
2019-02-25T13:33:01.943Z,36.41
2019-02-25T13:35:32.229Z,35.26
2019-02-25T13:38:02.537Z,36.05
2019-02-25T13:40:33.406Z,34.13
2019-02-25T13:43:03.687Z,34.78
2019-02-25T13:45:33.983Z,36.76
2019-02-25T13:48:04.252Z,37.53
2019-02-25T13:50:34.677Z,39.45
2019-02-25T13:53:04.975Z,39.13
2019-02-25T13:55:35.267Z,38.14
2019-02-25T13:58:06.031Z,37.99
2019-02-25T14:00:37.286Z,38.14
2019-02-25T14:03:07.573Z,38.56
2019-02-25T14:05:37.891Z,38.35
2019-02-25T14:08:08.173Z,38.33
2019-02-25T14:10:38.518Z,38.19
2019-02-25T14:13:08.822Z,38.84
2019-02-25T14:15:39.466Z,37.43
2019-02-25T14:18:10.878Z,38.40
2019-02-25T14:20:41.172Z,38.17
2019-02-25T14:23:11.469Z,37.91
2019-02-25T14:25:42.006Z,37.36
2019-02-25T14:28:12.409Z,37.62
2019-02-25T14:30:42.699Z,37.88
2019-02-25T14:33:14.840Z,37.48
2019-02-25T14:35:45.240Z,37.09
2019-02-25T14:38:18.368Z,38.00
2019-02-25T14:40:49.288Z,38.35
2019-02-25T14:43:22.479Z,38.50
2019-02-25T14:45:54.423Z,38.80
2019-02-25T14:48:25.343Z,39.16
2019-02-25T14:50:56.699Z,38.84
2019-02-25T14:53:29.623Z,38.86
2019-02-25T14:56:03.950Z,39.37
2019-02-25T14:58:35.559Z,39.59
2019-02-25T15:01:06.029Z,39.58
2019-02-25T15:03:36.590Z,38.45
2019-02-25T15:06:07.387Z,36.16
2019-02-25T15:08:37.647Z,38.02
2019-02-25T15:11:09.218Z,34.31
2019-02-25T15:13:39.893Z,33.92
2019-02-25T15:16:11.702Z,34.34
2019-02-25T15:18:42.484Z,35.18
2019-02-25T15:21:15.711Z,36.01
2019-02-25T15:23:44.875Z,37.89
2019-02-25T15:26:17.095Z,38.79
2019-02-25T15:28:53.681Z,39.37
2019-02-25T15:31:22.628Z,39.34
2019-02-25T15:33:53.402Z,38.90
2019-02-25T15:36:24.739Z,38.40
2019-02-25T15:38:55.589Z,39.06
2019-02-25T15:41:26.134Z,38.59
2019-02-25T15:43:59.836Z,39.13
2019-02-25T15:46:28.847Z,39.57
2019-02-25T15:48:59.366Z,39.49
2019-02-25T15:51:30.409Z,40.52
2019-02-25T15:54:01.988Z,40.99
2019-02-25T15:56:32.778Z,41.24
2019-02-25T15:59:03.289Z,42.31
2019-02-25T16:01:34.108Z,41.97
2019-02-25T16:04:06.907Z,42.97
2019-02-25T16:06:37.676Z,42.99
2019-02-25T16:09:09.059Z,43.77
2019-02-25T16:11:43.457Z,43.61
2019-02-25T16:14:13.630Z,44.18
2019-02-25T16:16:44.474Z,44.75
2019-02-25T16:19:17.028Z,44.25
2019-02-25T16:21:47.707Z,44.31
2019-02-25T16:24:18.793Z,44.61
2019-02-25T16:26:49.979Z,44.68
2019-02-25T16:29:20.376Z,45.21
2019-02-25T16:31:53.154Z,46.10
2019-02-25T16:34:23.749Z,45.47
2019-02-25T16:36:56.021Z,45.96
2019-02-25T16:39:26.795Z,46.08
2019-02-25T16:41:57.656Z,45.83
2019-02-25T16:44:28.207Z,45.69
2019-02-25T16:46:58.729Z,45.65
2019-02-25T16:49:29.601Z,46.04
2019-02-25T16:52:02.161Z,45.95
2019-02-25T16:54:34.362Z,46.59
2019-02-25T16:57:07.201Z,47.08
2019-02-25T16:59:37.552Z,47.54
2019-02-25T17:02:11.880Z,47.73
2019-02-25T17:04:40.185Z,48.49
2019-02-25T17:07:11.848Z,48.21
2019-02-25T17:09:43.328Z,48.64
2019-02-25T17:12:13.979Z,48.60
2019-02-25T17:14:45.347Z,48.17
2019-02-25T17:17:16.250Z,47.86
2019-02-25T17:19:48.561Z,47.93
2019-02-25T17:22:19.483Z,47.38
2019-02-25T17:24:49.888Z,47.42
2019-02-25T17:27:20.764Z,47.30
2019-02-25T17:29:53.304Z,47.23
2019-02-25T17:32:25.419Z,47.46
2019-02-25T17:34:57.947Z,47.40
2019-02-25T17:37:31.592Z,47.70
2019-02-25T17:40:05.795Z,47.83
2019-02-25T17:42:34.448Z,47.63
2019-02-25T17:45:09.953Z,47.26
2019-02-25T17:47:41.894Z,47.30
2019-02-25T17:50:18.968Z,46.81
2019-02-25T17:52:49.677Z,46.84
2019-02-25T17:55:25.381Z,47.17
2019-02-25T17:57:58.772Z,47.07
2019-02-25T18:00:35.032Z,47.25
2019-02-25T18:03:05.693Z,47.72
2019-02-25T18:05:38.040Z,47.67
2019-02-25T18:08:10.563Z,47.37
2019-02-25T18:10:43.126Z,46.98
2019-02-25T18:13:13.888Z,46.99
2019-02-25T18:15:45.152Z,46.65
2019-02-25T18:18:17.772Z,46.77
2019-02-25T18:20:48.800Z,46.72
2019-02-25T18:23:21.716Z,46.99
2019-02-25T18:25:58.073Z,46.97
2019-02-25T18:28:25.402Z,47.45
2019-02-25T18:30:59.650Z,47.48
2019-02-25T18:33:29.533Z,47.62
2019-02-25T18:36:00.775Z,47.78
2019-02-25T18:38:32.840Z,48.33
2019-02-25T18:41:04.717Z,49.50
2019-02-25T18:43:36.104Z,49.19
2019-02-25T18:46:07.229Z,49.46
2019-02-25T18:48:40.851Z,49.56
2019-02-25T18:51:11.646Z,50.27
2019-02-25T18:53:44.652Z,50.34
2019-02-25T18:56:16.743Z,50.76
2019-02-25T18:58:48.993Z,50.50
2019-02-25T19:01:20.147Z,51.31
2019-02-25T19:03:52.687Z,52.45
2019-02-25T19:06:25.617Z,53.51
2019-02-25T19:08:58.306Z,53.97
2019-02-25T19:11:29.054Z,54.47
2019-02-25T19:14:03.168Z,54.36
2019-02-25T19:16:31.880Z,54.51
2019-02-25T19:19:04.007Z,54.84
2019-02-25T19:21:35.711Z,54.25
2019-02-25T19:24:07.727Z,54.85
2019-02-25T19:26:40.318Z,55.24
2019-02-25T19:29:12.534Z,56.32
2019-02-25T19:31:43.279Z,55.27
2019-02-25T19:34:16.049Z,55.01
2019-02-25T19:36:47.914Z,56.22
2019-02-25T19:39:19.783Z,56.26
2019-02-25T19:41:51.361Z,57.08
2019-02-25T19:44:23.056Z,56.44
2019-02-25T19:46:55.881Z,56.97
2019-02-25T19:49:27.686Z,57.22
2019-02-25T19:51:58.067Z,57.42
2019-02-25T19:54:29.582Z,58.09
2019-02-25T19:56:59.961Z,57.99
2019-02-25T19:59:31.040Z,57.61
2019-02-25T20:02:01.446Z,58.30
2019-02-25T20:04:35.612Z,57.57
2019-02-25T20:07:05.588Z,58.56
2019-02-25T20:09:40.303Z,59.49
2019-02-25T20:12:09.986Z,61.00
2019-02-25T20:14:42.571Z,62.06
2019-02-25T20:17:13.111Z,62.66
2019-02-25T20:19:45.535Z,61.61
2019-02-25T20:22:16.753Z,62.74
2019-02-25T20:24:48.783Z,62.40
2019-02-25T20:27:20.133Z,63.47
2019-02-25T20:29:50.807Z,63.32
2019-02-25T20:32:21.399Z,63.81
2019-02-25T20:34:55.038Z,63.70
2019-02-25T20:37:27.369Z,62.84
2019-02-25T20:39:58.087Z,63.67
2019-02-25T20:42:28.973Z,63.44
2019-02-25T20:45:02.740Z,63.33
2019-02-25T20:47:33.543Z,62.35
2019-02-25T20:50:05.511Z,60.76
2019-02-25T20:52:40.150Z,60.96
2019-02-25T20:55:11.580Z,60.65
2019-02-25T20:57:42.507Z,60.50
2019-02-25T21:00:24.180Z,60.62
2019-02-25T21:02:54.530Z,60.17
2019-02-25T21:05:27.401Z,60.10
2019-02-25T21:07:59.776Z,59.27
2019-02-25T21:10:33.464Z,59.78
2019-02-25T21:13:03.739Z,59.68
2019-02-25T21:15:36.390Z,61.08
2019-02-25T21:18:07.891Z,61.29
2019-02-25T21:20:42.825Z,60.38
2019-02-25T21:23:12.914Z,61.16
2019-02-25T21:25:44.321Z,60.21
2019-02-25T21:28:14.886Z,61.16
2019-02-25T21:30:46.038Z,59.75
2019-02-25T21:33:19.873Z,59.82
2019-02-25T21:35:50.621Z,61.05
2019-02-25T21:38:24.326Z,60.32
2019-02-25T21:40:54.946Z,61.11
2019-02-25T21:43:28.786Z,61.09
2019-02-25T21:46:01.588Z,61.14
2019-02-25T21:48:35.220Z,62.06
2019-02-25T21:51:07.810Z,62.34
2019-02-25T21:53:40.095Z,63.03
2019-02-25T21:56:11.867Z,62.94
2019-02-25T21:58:44.422Z,63.09
2019-02-25T22:01:14.144Z,63.47
2019-02-25T22:03:48.022Z,63.42
2019-02-25T22:06:19.972Z,63.58
2019-02-25T22:08:50.204Z,63.63
2019-02-25T22:11:22.119Z,63.97
2019-02-25T22:13:52.623Z,63.63
2019-02-25T22:16:23.657Z,63.20
2019-02-25T22:18:56.570Z,63.26
2019-02-25T22:21:26.849Z,63.31
2019-02-25T22:24:01.346Z,62.97
2019-02-25T22:26:31.213Z,63.06
2019-02-25T22:29:02.512Z,61.75
2019-02-25T22:31:34.922Z,62.36
2019-02-25T22:34:06.701Z,61.29
2019-02-25T22:36:39.423Z,61.58
2019-02-25T22:39:08.698Z,61.50
2019-02-25T22:41:40.186Z,61.08
2019-02-25T22:44:11.064Z,61.16
2019-02-25T22:46:43.328Z,61.73
2019-02-25T22:49:13.751Z,62.50
2019-02-25T22:51:44.067Z,61.87
2019-02-25T22:54:14.775Z,61.44
2019-02-25T22:56:46.359Z,62.41
2019-02-25T22:59:20.061Z,62.40
2019-02-25T23:01:52.051Z,62.50
2019-02-25T23:04:22.525Z,62.45
2019-02-25T23:06:53.548Z,63.08
2019-02-25T23:09:25.796Z,63.81
2019-02-25T23:11:56.264Z,63.70
2019-02-25T23:14:26.564Z,63.87
2019-02-25T23:16:56.847Z,64.52
2019-02-25T23:19:27.144Z,64.80
2019-02-25T23:21:57.465Z,64.52
2019-02-25T23:24:29.953Z,64.33
2019-02-25T23:26:59.747Z,64.47
2019-02-25T23:29:31.148Z,63.99
2019-02-25T23:32:02.502Z,63.57
2019-02-25T23:34:35.921Z,63.66
2019-02-25T23:37:08.391Z,63.70
2019-02-25T23:39:40.419Z,63.57
2019-02-25T23:42:11.442Z,63.26
2019-02-25T23:44:42.489Z,63.57
2019-02-25T23:47:12.848Z,63.58
2019-02-25T23:49:43.854Z,64.34
2019-02-25T23:52:15.174Z,64.04
2019-02-25T23:54:47.331Z,64.83
2019-02-25T23:57:19.842Z,64.86
2019-02-25T23:59:51.146Z,65.03
